sensor_id;sensor_type;location;lat;lon;timestamp;P1;durP1;ratioP1;P2;durP2;ratioP2
69892;SDS011;61212;42.688;22.176;2022-07-06T00:01:43;6.80;;;5.30;;
69892;SDS011;61212;42.688;22.176;2022-07-06T00:04:09;14.27;;;5.20;;
69892;SDS011;61212;42.688;22.176;2022-07-06T00:06:35;7.80;;;4.85;;
69892;SDS011;61212;42.688;22.176;2022-07-06T00:09:02;6.45;;;4.38;;
69892;SDS011;61212;42.688;22.176;2022-07-06T00:11:28;7.25;;;4.93;;
69892;SDS011;61212;42.688;22.176;2022-07-06T00:13:54;6.68;;;4.80;;
69892;SDS011;61212;42.688;22.176;2022-07-06T00:19:43;10.85;;;4.93;;
69892;SDS011;61212;42.688;22.176;2022-07-06T00:22:09;8.18;;;5.15;;
69892;SDS011;61212;42.688;22.176;2022-07-06T00:24:34;11.85;;;4.75;;
69892;SDS011;61212;42.688;22.176;2022-07-06T00:27:00;9.57;;;5.28;;
69892;SDS011;61212;42.688;22.176;2022-07-06T00:29:26;12.90;;;4.75;;
69892;SDS011;61212;42.688;22.176;2022-07-06T00:31:52;8.20;;;4.97;;
69892;SDS011;61212;42.688;22.176;2022-07-06T00:34:17;8.85;;;4.63;;
69892;SDS011;61212;42.688;22.176;2022-07-06T00:36:43;9.63;;;5.13;;
69892;SDS011;61212;42.688;22.176;2022-07-06T00:39:09;10.88;;;5.18;;
69892;SDS011;61212;42.688;22.176;2022-07-06T00:41:35;10.45;;;4.40;;
69892;SDS011;61212;42.688;22.176;2022-07-06T00:44:04;8.50;;;4.18;;
69892;SDS011;61212;42.688;22.176;2022-07-06T00:46:33;10.23;;;4.90;;
69892;SDS011;61212;42.688;22.176;2022-07-06T00:48:59;8.80;;;4.75;;
69892;SDS011;61212;42.688;22.176;2022-07-06T00:51:26;10.45;;;5.22;;
69892;SDS011;61212;42.688;22.176;2022-07-06T00:53:55;12.90;;;5.03;;
69892;SDS011;61212;42.688;22.176;2022-07-06T00:56:28;10.23;;;5.70;;
69892;SDS011;61212;42.688;22.176;2022-07-06T00:58:56;8.45;;;5.20;;
69892;SDS011;61212;42.688;22.176;2022-07-06T01:01:22;11.10;;;5.63;;
69892;SDS011;61212;42.688;22.176;2022-07-06T01:03:48;14.57;;;5.80;;
69892;SDS011;61212;42.688;22.176;2022-07-06T01:06:15;11.02;;;5.38;;
69892;SDS011;61212;42.688;22.176;2022-07-06T01:08:41;7.22;;;5.53;;
69892;SDS011;61212;42.688;22.176;2022-07-06T01:11:06;11.43;;;5.40;;
69892;SDS011;61212;42.688;22.176;2022-07-06T01:13:33;9.82;;;5.57;;
69892;SDS011;61212;42.688;22.176;2022-07-06T01:19:20;11.43;;;5.25;;
69892;SDS011;61212;42.688;22.176;2022-07-06T01:21:46;7.93;;;5.47;;
69892;SDS011;61212;42.688;22.176;2022-07-06T01:24:12;8.73;;;5.47;;
69892;SDS011;61212;42.688;22.176;2022-07-06T01:26:38;8.32;;;5.18;;
69892;SDS011;61212;42.688;22.176;2022-07-06T01:29:04;10.05;;;4.80;;
69892;SDS011;61212;42.688;22.176;2022-07-06T01:34:52;9.02;;;5.40;;
69892;SDS011;61212;42.688;22.176;2022-07-06T01:37:18;6.60;;;5.10;;
69892;SDS011;61212;42.688;22.176;2022-07-06T01:39:43;8.82;;;6.03;;
69892;SDS011;61212;42.688;22.176;2022-07-06T01:42:09;12.38;;;5.05;;
69892;SDS011;61212;42.688;22.176;2022-07-06T01:44:35;8.77;;;4.85;;
69892;SDS011;61212;42.688;22.176;2022-07-06T01:47:01;10.45;;;5.10;;
69892;SDS011;61212;42.688;22.176;2022-07-06T01:49:26;13.23;;;5.20;;
69892;SDS011;61212;42.688;22.176;2022-07-06T01:51:52;8.50;;;4.82;;
69892;SDS011;61212;42.688;22.176;2022-07-06T01:54:18;10.82;;;4.95;;
69892;SDS011;61212;42.688;22.176;2022-07-06T01:56:44;9.95;;;5.43;;
69892;SDS011;61212;42.688;22.176;2022-07-06T01:59:10;8.88;;;5.32;;
69892;SDS011;61212;42.688;22.176;2022-07-06T02:04:40;7.82;;;5.30;;
69892;SDS011;61212;42.688;22.176;2022-07-06T02:07:06;10.68;;;5.57;;
69892;SDS011;61212;42.688;22.176;2022-07-06T02:09:32;9.43;;;5.35;;
69892;SDS011;61212;42.688;22.176;2022-07-06T02:11:58;7.20;;;5.25;;
69892;SDS011;61212;42.688;22.176;2022-07-06T02:14:24;12.05;;;5.47;;
69892;SDS011;61212;42.688;22.176;2022-07-06T02:16:50;19.73;;;5.70;;
69892;SDS011;61212;42.688;22.176;2022-07-06T02:19:16;11.30;;;5.53;;
69892;SDS011;61212;42.688;22.176;2022-07-06T02:21:42;7.88;;;5.18;;
69892;SDS011;61212;42.688;22.176;2022-07-06T02:24:08;12.40;;;5.60;;
69892;SDS011;61212;42.688;22.176;2022-07-06T02:26:34;9.55;;;5.05;;
69892;SDS011;61212;42.688;22.176;2022-07-06T02:29:00;8.18;;;5.45;;
69892;SDS011;61212;42.688;22.176;2022-07-06T02:31:45;8.82;;;4.88;;
69892;SDS011;61212;42.688;22.176;2022-07-06T02:34:11;13.00;;;5.13;;
69892;SDS011;61212;42.688;22.176;2022-07-06T02:36:37;8.48;;;5.07;;
69892;SDS011;61212;42.688;22.176;2022-07-06T02:39:03;9.20;;;4.47;;
69892;SDS011;61212;42.688;22.176;2022-07-06T02:41:29;10.38;;;5.05;;
69892;SDS011;61212;42.688;22.176;2022-07-06T02:43:55;13.07;;;5.63;;
69892;SDS011;61212;42.688;22.176;2022-07-06T02:46:27;11.25;;;5.15;;
69892;SDS011;61212;42.688;22.176;2022-07-06T02:48:53;12.52;;;5.15;;
69892;SDS011;61212;42.688;22.176;2022-07-06T02:51:19;8.77;;;5.45;;
69892;SDS011;61212;42.688;22.176;2022-07-06T02:53:45;12.70;;;5.68;;
69892;SDS011;61212;42.688;22.176;2022-07-06T02:56:11;8.82;;;4.78;;
69892;SDS011;61212;42.688;22.176;2022-07-06T02:58:37;12.00;;;4.70;;
69892;SDS011;61212;42.688;22.176;2022-07-06T03:01:03;12.35;;;4.40;;
69892;SDS011;61212;42.688;22.176;2022-07-06T03:03:29;10.23;;;4.40;;
69892;SDS011;61212;42.688;22.176;2022-07-06T03:05:55;11.43;;;4.55;;
69892;SDS011;61212;42.688;22.176;2022-07-06T03:08:21;9.10;;;4.90;;
69892;SDS011;61212;42.688;22.176;2022-07-06T03:10:47;6.53;;;4.70;;
69892;SDS011;61212;42.688;22.176;2022-07-06T03:13:13;7.35;;;4.63;;
69892;SDS011;61212;42.688;22.176;2022-07-06T03:15:39;8.95;;;4.45;;
69892;SDS011;61212;42.688;22.176;2022-07-06T03:18:05;8.02;;;5.00;;
69892;SDS011;61212;42.688;22.176;2022-07-06T03:20:31;7.18;;;4.70;;
69892;SDS011;61212;42.688;22.176;2022-07-06T03:22:57;7.85;;;4.95;;
69892;SDS011;61212;42.688;22.176;2022-07-06T03:25:23;10.90;;;5.00;;
69892;SDS011;61212;42.688;22.176;2022-07-06T03:27:49;13.23;;;6.68;;
69892;SDS011;61212;42.688;22.176;2022-07-06T03:30:16;14.38;;;6.25;;
69892;SDS011;61212;42.688;22.176;2022-07-06T03:33:00;8.65;;;5.78;;
69892;SDS011;61212;42.688;22.176;2022-07-06T03:35:26;12.98;;;5.40;;
69892;SDS011;61212;42.688;22.176;2022-07-06T03:37:51;7.38;;;5.00;;
69892;SDS011;61212;42.688;22.176;2022-07-06T03:40:17;6.65;;;4.95;;
69892;SDS011;61212;42.688;22.176;2022-07-06T03:42:44;9.82;;;6.13;;
69892;SDS011;61212;42.688;22.176;2022-07-06T03:45:10;8.35;;;4.80;;
69892;SDS011;61212;42.688;22.176;2022-07-06T03:47:36;10.65;;;4.90;;
69892;SDS011;61212;42.688;22.176;2022-07-06T03:50:02;7.43;;;4.75;;
69892;SDS011;61212;42.688;22.176;2022-07-06T03:52:28;11.48;;;4.95;;
69892;SDS011;61212;42.688;22.176;2022-07-06T03:54:55;10.25;;;4.95;;
69892;SDS011;61212;42.688;22.176;2022-07-06T03:57:21;10.98;;;4.93;;
69892;SDS011;61212;42.688;22.176;2022-07-06T03:59:47;8.77;;;4.68;;
69892;SDS011;61212;42.688;22.176;2022-07-06T04:02:13;9.00;;;5.03;;
69892;SDS011;61212;42.688;22.176;2022-07-06T04:04:40;9.80;;;5.18;;
69892;SDS011;61212;42.688;22.176;2022-07-06T04:07:06;11.20;;;5.22;;
69892;SDS011;61212;42.688;22.176;2022-07-06T04:09:32;9.50;;;5.40;;
69892;SDS011;61212;42.688;22.176;2022-07-06T04:11:58;8.30;;;4.80;;
69892;SDS011;61212;42.688;22.176;2022-07-06T04:14:24;11.68;;;5.70;;
69892;SDS011;61212;42.688;22.176;2022-07-06T04:17:10;12.05;;;5.45;;
69892;SDS011;61212;42.688;22.176;2022-07-06T04:19:55;14.20;;;6.45;;
69892;SDS011;61212;42.688;22.176;2022-07-06T04:22:21;9.73;;;5.10;;
69892;SDS011;61212;42.688;22.176;2022-07-06T04:24:47;9.25;;;5.22;;
69892;SDS011;61212;42.688;22.176;2022-07-06T04:27:13;11.10;;;5.50;;
69892;SDS011;61212;42.688;22.176;2022-07-06T04:29:39;10.73;;;5.38;;
69892;SDS011;61212;42.688;22.176;2022-07-06T04:32:05;11.25;;;5.80;;
69892;SDS011;61212;42.688;22.176;2022-07-06T04:34:32;15.70;;;5.88;;
69892;SDS011;61212;42.688;22.176;2022-07-06T04:36:58;7.95;;;5.18;;
69892;SDS011;61212;42.688;22.176;2022-07-06T04:39:24;15.50;;;6.18;;
69892;SDS011;61212;42.688;22.176;2022-07-06T04:41:50;12.75;;;6.00;;
69892;SDS011;61212;42.688;22.176;2022-07-06T04:44:16;11.40;;;5.03;;
69892;SDS011;61212;42.688;22.176;2022-07-06T04:49:46;13.68;;;5.85;;
69892;SDS011;61212;42.688;22.176;2022-07-06T04:52:12;21.23;;;6.20;;
69892;SDS011;61212;42.688;22.176;2022-07-06T04:54:38;8.45;;;5.80;;
69892;SDS011;61212;42.688;22.176;2022-07-06T04:57:04;8.43;;;6.10;;
69892;SDS011;61212;42.688;22.176;2022-07-06T04:59:30;13.32;;;6.60;;
69892;SDS011;61212;42.688;22.176;2022-07-06T05:02:02;11.98;;;6.43;;
69892;SDS011;61212;42.688;22.176;2022-07-06T05:04:28;11.63;;;6.95;;
69892;SDS011;61212;42.688;22.176;2022-07-06T05:06:54;9.27;;;6.30;;
69892;SDS011;61212;42.688;22.176;2022-07-06T05:09:20;13.40;;;7.13;;
69892;SDS011;61212;42.688;22.176;2022-07-06T05:11:46;10.25;;;7.50;;
69892;SDS011;61212;42.688;22.176;2022-07-06T05:14:12;10.10;;;6.93;;
69892;SDS011;61212;42.688;22.176;2022-07-06T05:16:38;10.02;;;6.28;;
69892;SDS011;61212;42.688;22.176;2022-07-06T05:19:05;9.50;;;6.32;;
69892;SDS011;61212;42.688;22.176;2022-07-06T05:21:31;9.30;;;6.03;;
69892;SDS011;61212;42.688;22.176;2022-07-06T05:23:57;10.02;;;5.90;;
69892;SDS011;61212;42.688;22.176;2022-07-06T05:26:23;14.82;;;6.20;;
69892;SDS011;61212;42.688;22.176;2022-07-06T05:28:49;6.65;;;5.05;;
69892;SDS011;61212;42.688;22.176;2022-07-06T05:31:15;12.13;;;5.65;;
69892;SDS011;61212;42.688;22.176;2022-07-06T05:33:41;8.18;;;5.55;;
69892;SDS011;61212;42.688;22.176;2022-07-06T05:36:08;11.48;;;6.57;;
69892;SDS011;61212;42.688;22.176;2022-07-06T05:38:34;9.55;;;6.25;;
69892;SDS011;61212;42.688;22.176;2022-07-06T05:41:00;9.90;;;6.90;;
69892;SDS011;61212;42.688;22.176;2022-07-06T05:43:26;10.27;;;6.05;;
69892;SDS011;61212;42.688;22.176;2022-07-06T05:45:52;15.35;;;7.47;;
69892;SDS011;61212;42.688;22.176;2022-07-06T05:48:18;16.38;;;7.32;;
69892;SDS011;61212;42.688;22.176;2022-07-06T05:51:03;12.57;;;7.28;;
69892;SDS011;61212;42.688;22.176;2022-07-06T05:53:29;24.45;;;8.13;;
69892;SDS011;61212;42.688;22.176;2022-07-06T05:55:55;15.60;;;7.32;;
69892;SDS011;61212;42.688;22.176;2022-07-06T05:58:20;16.85;;;6.40;;
69892;SDS011;61212;42.688;22.176;2022-07-06T06:00:46;11.05;;;6.55;;
69892;SDS011;61212;42.688;22.176;2022-07-06T06:03:12;12.63;;;7.43;;
69892;SDS011;61212;42.688;22.176;2022-07-06T06:05:38;8.13;;;6.40;;
69892;SDS011;61212;42.688;22.176;2022-07-06T06:08:04;9.55;;;6.95;;
69892;SDS011;61212;42.688;22.176;2022-07-06T06:10:30;12.15;;;6.95;;
69892;SDS011;61212;42.688;22.176;2022-07-06T06:12:56;12.82;;;7.28;;
69892;SDS011;61212;42.688;22.176;2022-07-06T06:15:22;8.95;;;7.25;;
69892;SDS011;61212;42.688;22.176;2022-07-06T06:23:56;14.03;;;8.23;;
69892;SDS011;61212;42.688;22.176;2022-07-06T06:26:22;16.35;;;8.00;;
69892;SDS011;61212;42.688;22.176;2022-07-06T06:28:48;12.48;;;7.43;;
69892;SDS011;61212;42.688;22.176;2022-07-06T06:31:14;9.80;;;7.38;;
69892;SDS011;61212;42.688;22.176;2022-07-06T06:33:40;9.68;;;7.15;;
69892;SDS011;61212;42.688;22.176;2022-07-06T06:36:06;14.38;;;8.32;;
69892;SDS011;61212;42.688;22.176;2022-07-06T06:38:33;12.73;;;9.25;;
69892;SDS011;61212;42.688;22.176;2022-07-06T06:40:59;13.43;;;7.97;;
69892;SDS011;61212;42.688;22.176;2022-07-06T06:43:26;14.05;;;8.80;;
69892;SDS011;61212;42.688;22.176;2022-07-06T06:45:52;12.55;;;8.43;;
69892;SDS011;61212;42.688;22.176;2022-07-06T06:48:19;12.25;;;8.18;;
69892;SDS011;61212;42.688;22.176;2022-07-06T06:50:45;13.85;;;10.45;;
69892;SDS011;61212;42.688;22.176;2022-07-06T06:53:11;14.32;;;9.43;;
69892;SDS011;61212;42.688;22.176;2022-07-06T06:55:37;14.18;;;8.02;;
69892;SDS011;61212;42.688;22.176;2022-07-06T06:58:03;11.85;;;9.65;;
69892;SDS011;61212;42.688;22.176;2022-07-06T07:00:29;11.45;;;8.25;;
69892;SDS011;61212;42.688;22.176;2022-07-06T07:03:13;10.77;;;8.80;;
69892;SDS011;61212;42.688;22.176;2022-07-06T07:05:38;12.32;;;8.80;;
69892;SDS011;61212;42.688;22.176;2022-07-06T07:08:04;13.35;;;8.27;;
69892;SDS011;61212;42.688;22.176;2022-07-06T07:10:30;11.35;;;7.45;;
69892;SDS011;61212;42.688;22.176;2022-07-06T07:12:57;12.27;;;7.78;;
69892;SDS011;61212;42.688;22.176;2022-07-06T07:15:23;12.23;;;7.18;;
69892;SDS011;61212;42.688;22.176;2022-07-06T07:17:48;12.32;;;7.03;;
69892;SDS011;61212;42.688;22.176;2022-07-06T07:20:14;10.13;;;6.80;;
69892;SDS011;61212;42.688;22.176;2022-07-06T07:22:40;18.15;;;7.90;;
69892;SDS011;61212;42.688;22.176;2022-07-06T07:25:06;10.95;;;7.53;;
69892;SDS011;61212;42.688;22.176;2022-07-06T07:27:32;15.10;;;7.22;;
69892;SDS011;61212;42.688;22.176;2022-07-06T07:29:58;11.63;;;7.70;;
69892;SDS011;61212;42.688;22.176;2022-07-06T07:32:36;13.20;;;7.97;;
69892;SDS011;61212;42.688;22.176;2022-07-06T07:35:02;16.45;;;8.57;;
69892;SDS011;61212;42.688;22.176;2022-07-06T07:37:28;10.80;;;7.40;;
69892;SDS011;61212;42.688;22.176;2022-07-06T07:39:54;11.20;;;7.72;;
69892;SDS011;61212;42.688;22.176;2022-07-06T07:42:20;15.73;;;8.48;;
69892;SDS011;61212;42.688;22.176;2022-07-06T07:44:46;23.83;;;11.60;;
69892;SDS011;61212;42.688;22.176;2022-07-06T07:47:11;12.75;;;8.63;;
69892;SDS011;61212;42.688;22.176;2022-07-06T07:49:37;12.15;;;7.97;;
69892;SDS011;61212;42.688;22.176;2022-07-06T07:52:03;14.93;;;7.90;;
69892;SDS011;61212;42.688;22.176;2022-07-06T07:54:29;10.77;;;7.97;;
69892;SDS011;61212;42.688;22.176;2022-07-06T07:56:55;14.68;;;8.80;;
69892;SDS011;61212;42.688;22.176;2022-07-06T07:59:21;17.63;;;8.60;;
69892;SDS011;61212;42.688;22.176;2022-07-06T08:01:47;13.85;;;7.95;;
69892;SDS011;61212;42.688;22.176;2022-07-06T08:04:13;12.55;;;8.90;;
69892;SDS011;61212;42.688;22.176;2022-07-06T08:06:39;13.73;;;8.95;;
69892;SDS011;61212;42.688;22.176;2022-07-06T08:09:05;19.02;;;10.90;;
69892;SDS011;61212;42.688;22.176;2022-07-06T08:11:33;15.73;;;9.48;;
69892;SDS011;61212;42.688;22.176;2022-07-06T08:13:59;17.40;;;9.18;;
69892;SDS011;61212;42.688;22.176;2022-07-06T08:16:25;15.20;;;8.65;;
69892;SDS011;61212;42.688;22.176;2022-07-06T08:18:51;18.80;;;11.10;;
69892;SDS011;61212;42.688;22.176;2022-07-06T08:21:17;19.00;;;10.68;;
69892;SDS011;61212;42.688;22.176;2022-07-06T08:23:43;11.63;;;9.32;;
69892;SDS011;61212;42.688;22.176;2022-07-06T08:26:09;11.75;;;9.60;;
69892;SDS011;61212;42.688;22.176;2022-07-06T08:28:35;18.52;;;9.93;;
69892;SDS011;61212;42.688;22.176;2022-07-06T08:31:00;11.50;;;8.98;;
69892;SDS011;61212;42.688;22.176;2022-07-06T08:33:26;16.23;;;9.52;;
69892;SDS011;61212;42.688;22.176;2022-07-06T08:35:52;11.57;;;10.30;;
69892;SDS011;61212;42.688;22.176;2022-07-06T08:38:18;15.00;;;11.15;;
69892;SDS011;61212;42.688;22.176;2022-07-06T08:40:45;13.98;;;11.40;;
69892;SDS011;61212;42.688;22.176;2022-07-06T08:43:13;13.95;;;11.88;;
69892;SDS011;61212;42.688;22.176;2022-07-06T08:45:40;15.25;;;11.27;;
69892;SDS011;61212;42.688;22.176;2022-07-06T08:48:10;14.32;;;12.25;;
69892;SDS011;61212;42.688;22.176;2022-07-06T08:50:37;16.45;;;13.05;;
69892;SDS011;61212;42.688;22.176;2022-07-06T08:53:04;18.15;;;12.82;;
69892;SDS011;61212;42.688;22.176;2022-07-06T08:55:31;15.35;;;12.70;;
69892;SDS011;61212;42.688;22.176;2022-07-06T08:57:58;15.93;;;12.77;;
69892;SDS011;61212;42.688;22.176;2022-07-06T09:00:24;16.90;;;13.60;;
69892;SDS011;61212;42.688;22.176;2022-07-06T09:06:02;12.70;;;11.18;;
69892;SDS011;61212;42.688;22.176;2022-07-06T09:08:31;12.07;;;10.73;;
69892;SDS011;61212;42.688;22.176;2022-07-06T09:10:57;16.02;;;13.75;;
69892;SDS011;61212;42.688;22.176;2022-07-06T09:13:23;14.35;;;11.40;;
69892;SDS011;61212;42.688;22.176;2022-07-06T09:15:49;25.17;;;16.95;;
69892;SDS011;61212;42.688;22.176;2022-07-06T09:18:15;34.40;;;18.40;;
69892;SDS011;61212;42.688;22.176;2022-07-06T09:20:41;13.73;;;11.32;;
69892;SDS011;61212;42.688;22.176;2022-07-06T09:23:07;18.45;;;13.80;;
69892;SDS011;61212;42.688;22.176;2022-07-06T09:25:34;18.73;;;13.13;;
69892;SDS011;61212;42.688;22.176;2022-07-06T09:28:00;14.77;;;10.38;;
69892;SDS011;61212;42.688;22.176;2022-07-06T09:30:27;16.65;;;11.98;;
69892;SDS011;61212;42.688;22.176;2022-07-06T09:33:06;18.08;;;11.95;;
69892;SDS011;61212;42.688;22.176;2022-07-06T09:35:36;12.73;;;11.43;;
69892;SDS011;61212;42.688;22.176;2022-07-06T09:38:07;20.65;;;11.05;;
69892;SDS011;61212;42.688;22.176;2022-07-06T09:40:35;13.50;;;10.82;;
69892;SDS011;61212;42.688;22.176;2022-07-06T09:43:09;13.15;;;10.32;;
69892;SDS011;61212;42.688;22.176;2022-07-06T09:45:48;12.77;;;9.18;;
69892;SDS011;61212;42.688;22.176;2022-07-06T09:51:18;16.48;;;12.30;;
69892;SDS011;61212;42.688;22.176;2022-07-06T09:53:45;14.52;;;9.55;;
69892;SDS011;61212;42.688;22.176;2022-07-06T09:56:17;22.08;;;13.52;;
69892;SDS011;61212;42.688;22.176;2022-07-06T09:58:43;14.38;;;10.98;;
69892;SDS011;61212;42.688;22.176;2022-07-06T10:01:09;31.45;;;15.10;;
69892;SDS011;61212;42.688;22.176;2022-07-06T10:03:35;19.30;;;12.27;;
69892;SDS011;61212;42.688;22.176;2022-07-06T10:06:00;12.85;;;10.02;;
69892;SDS011;61212;42.688;22.176;2022-07-06T10:08:26;15.68;;;10.85;;
69892;SDS011;61212;42.688;22.176;2022-07-06T10:10:54;26.45;;;14.85;;
69892;SDS011;61212;42.688;22.176;2022-07-06T10:13:21;13.90;;;10.55;;
69892;SDS011;61212;42.688;22.176;2022-07-06T10:15:49;13.90;;;8.60;;
69892;SDS011;61212;42.688;22.176;2022-07-06T10:21:37;14.73;;;9.07;;
69892;SDS011;61212;42.688;22.176;2022-07-06T10:24:07;10.93;;;8.75;;
69892;SDS011;61212;42.688;22.176;2022-07-06T10:26:34;10.70;;;8.45;;
69892;SDS011;61212;42.688;22.176;2022-07-06T10:29:01;11.70;;;9.13;;
69892;SDS011;61212;42.688;22.176;2022-07-06T10:31:28;13.90;;;8.68;;
69892;SDS011;61212;42.688;22.176;2022-07-06T10:34:14;14.73;;;8.93;;
69892;SDS011;61212;42.688;22.176;2022-07-06T10:36:43;9.65;;;7.70;;
69892;SDS011;61212;42.688;22.176;2022-07-06T10:39:10;8.57;;;7.68;;
69892;SDS011;61212;42.688;22.176;2022-07-06T10:41:54;10.38;;;8.10;;
69892;SDS011;61212;42.688;22.176;2022-07-06T10:44:24;11.43;;;8.35;;
69892;SDS011;61212;42.688;22.176;2022-07-06T10:46:55;13.10;;;8.55;;
69892;SDS011;61212;42.688;22.176;2022-07-06T10:49:25;8.88;;;7.15;;
69892;SDS011;61212;42.688;22.176;2022-07-06T10:51:52;11.05;;;8.00;;
69892;SDS011;61212;42.688;22.176;2022-07-06T10:54:18;11.55;;;8.15;;
69892;SDS011;61212;42.688;22.176;2022-07-06T10:56:46;11.50;;;7.82;;
69892;SDS011;61212;42.688;22.176;2022-07-06T10:59:16;9.55;;;7.55;;
69892;SDS011;61212;42.688;22.176;2022-07-06T11:04:39;8.90;;;6.63;;
69892;SDS011;61212;42.688;22.176;2022-07-06T11:07:10;10.50;;;6.95;;
69892;SDS011;61212;42.688;22.176;2022-07-06T11:09:37;8.60;;;6.75;;
69892;SDS011;61212;42.688;22.176;2022-07-06T11:12:12;8.15;;;7.13;;
69892;SDS011;61212;42.688;22.176;2022-07-06T11:14:41;13.73;;;7.25;;
69892;SDS011;61212;42.688;22.176;2022-07-06T11:17:10;7.28;;;6.05;;
69892;SDS011;61212;42.688;22.176;2022-07-06T11:19:36;8.60;;;6.70;;
69892;SDS011;61212;42.688;22.176;2022-07-06T11:22:06;7.63;;;6.63;;
69892;SDS011;61212;42.688;22.176;2022-07-06T11:24:33;6.72;;;6.05;;
69892;SDS011;61212;42.688;22.176;2022-07-06T11:27:00;7.32;;;6.20;;
69892;SDS011;61212;42.688;22.176;2022-07-06T11:29:27;6.22;;;5.60;;
69892;SDS011;61212;42.688;22.176;2022-07-06T11:31:54;7.32;;;5.75;;
69892;SDS011;61212;42.688;22.176;2022-07-06T11:34:27;9.98;;;6.18;;
69892;SDS011;61212;42.688;22.176;2022-07-06T11:36:55;10.25;;;6.03;;
69892;SDS011;61212;42.688;22.176;2022-07-06T11:39:22;7.07;;;5.90;;
69892;SDS011;61212;42.688;22.176;2022-07-06T11:41:51;15.18;;;10.02;;
69892;SDS011;61212;42.688;22.176;2022-07-06T11:44:17;7.57;;;5.85;;
69892;SDS011;61212;42.688;22.176;2022-07-06T11:46:43;7.00;;;6.07;;
69892;SDS011;61212;42.688;22.176;2022-07-06T11:49:08;5.57;;;5.07;;
69892;SDS011;61212;42.688;22.176;2022-07-06T11:51:35;6.43;;;5.55;;
69892;SDS011;61212;42.688;22.176;2022-07-06T11:54:07;9.57;;;5.30;;
69892;SDS011;61212;42.688;22.176;2022-07-06T11:56:33;11.02;;;5.85;;
69892;SDS011;61212;42.688;22.176;2022-07-06T11:59:00;7.43;;;5.20;;
69892;SDS011;61212;42.688;22.176;2022-07-06T12:01:27;6.13;;;4.93;;
69892;SDS011;61212;42.688;22.176;2022-07-06T12:04:00;7.72;;;5.22;;
69892;SDS011;61212;42.688;22.176;2022-07-06T12:06:29;8.52;;;5.30;;
69892;SDS011;61212;42.688;22.176;2022-07-06T12:08:59;10.40;;;5.07;;
69892;SDS011;61212;42.688;22.176;2022-07-06T12:11:30;8.40;;;4.97;;
69892;SDS011;61212;42.688;22.176;2022-07-06T12:13:58;7.13;;;4.85;;
69892;SDS011;61212;42.688;22.176;2022-07-06T12:16:30;13.98;;;4.57;;
69892;SDS011;61212;42.688;22.176;2022-07-06T12:21:47;6.55;;;4.53;;
69892;SDS011;61212;42.688;22.176;2022-07-06T12:24:17;6.63;;;4.90;;
69892;SDS011;61212;42.688;22.176;2022-07-06T12:26:43;7.90;;;4.65;;
69892;SDS011;61212;42.688;22.176;2022-07-06T12:29:10;8.80;;;5.10;;
69892;SDS011;61212;42.688;22.176;2022-07-06T12:34:14;10.85;;;5.32;;
69892;SDS011;61212;42.688;22.176;2022-07-06T12:36:43;8.70;;;4.65;;
69892;SDS011;61212;42.688;22.176;2022-07-06T12:39:11;7.38;;;4.85;;
69892;SDS011;61212;42.688;22.176;2022-07-06T12:41:42;5.93;;;4.45;;
69892;SDS011;61212;42.688;22.176;2022-07-06T12:44:30;7.05;;;4.30;;
69892;SDS011;61212;42.688;22.176;2022-07-06T12:49:28;11.88;;;4.30;;
69892;SDS011;61212;42.688;22.176;2022-07-06T12:51:55;5.47;;;4.25;;
69892;SDS011;61212;42.688;22.176;2022-07-06T12:54:22;6.60;;;4.53;;
69892;SDS011;61212;42.688;22.176;2022-07-06T12:56:57;6.65;;;4.30;;
69892;SDS011;61212;42.688;22.176;2022-07-06T12:59:23;6.30;;;4.50;;
69892;SDS011;61212;42.688;22.176;2022-07-06T13:01:50;6.35;;;4.68;;
69892;SDS011;61212;42.688;22.176;2022-07-06T13:04:21;10.32;;;4.90;;
69892;SDS011;61212;42.688;22.176;2022-07-06T13:06:47;8.43;;;4.88;;
69892;SDS011;61212;42.688;22.176;2022-07-06T13:09:13;6.38;;;5.05;;
69892;SDS011;61212;42.688;22.176;2022-07-06T13:11:40;5.80;;;4.95;;
69892;SDS011;61212;42.688;22.176;2022-07-06T13:14:06;5.28;;;4.38;;
69892;SDS011;61212;42.688;22.176;2022-07-06T13:16:31;5.07;;;4.55;;
69892;SDS011;61212;42.688;22.176;2022-07-06T13:19:18;7.05;;;5.25;;
69892;SDS011;61212;42.688;22.176;2022-07-06T13:21:43;6.20;;;4.43;;
69892;SDS011;61212;42.688;22.176;2022-07-06T13:24:10;6.18;;;4.93;;
69892;SDS011;61212;42.688;22.176;2022-07-06T13:26:36;5.78;;;4.70;;
69892;SDS011;61212;42.688;22.176;2022-07-06T13:29:02;7.53;;;4.65;;
69892;SDS011;61212;42.688;22.176;2022-07-06T13:31:29;5.03;;;4.53;;
69892;SDS011;61212;42.688;22.176;2022-07-06T13:36:42;4.78;;;3.78;;
69892;SDS011;61212;42.688;22.176;2022-07-06T13:39:08;6.38;;;3.78;;
69892;SDS011;61212;42.688;22.176;2022-07-06T13:41:35;5.30;;;4.35;;
69892;SDS011;61212;42.688;22.176;2022-07-06T13:44:01;5.13;;;4.05;;
69892;SDS011;61212;42.688;22.176;2022-07-06T13:46:28;5.15;;;4.32;;
69892;SDS011;61212;42.688;22.176;2022-07-06T13:48:54;7.43;;;4.50;;
69892;SDS011;61212;42.688;22.176;2022-07-06T13:51:21;5.05;;;3.95;;
69892;SDS011;61212;42.688;22.176;2022-07-06T13:53:47;5.38;;;4.47;;
69892;SDS011;61212;42.688;22.176;2022-07-06T13:56:14;4.97;;;4.07;;
69892;SDS011;61212;42.688;22.176;2022-07-06T13:58:40;5.10;;;4.13;;
69892;SDS011;61212;42.688;22.176;2022-07-06T14:01:06;6.65;;;4.50;;
69892;SDS011;61212;42.688;22.176;2022-07-06T14:03:32;10.68;;;3.75;;
69892;SDS011;61212;42.688;22.176;2022-07-06T14:05:58;10.00;;;3.83;;
69892;SDS011;61212;42.688;22.176;2022-07-06T14:08:25;7.05;;;4.32;;
69892;SDS011;61212;42.688;22.176;2022-07-06T14:10:52;6.00;;;4.10;;
69892;SDS011;61212;42.688;22.176;2022-07-06T14:13:19;5.10;;;3.88;;
69892;SDS011;61212;42.688;22.176;2022-07-06T14:15:45;6.55;;;4.13;;
69892;SDS011;61212;42.688;22.176;2022-07-06T14:18:11;4.35;;;3.78;;
69892;SDS011;61212;42.688;22.176;2022-07-06T14:20:37;7.22;;;4.05;;
69892;SDS011;61212;42.688;22.176;2022-07-06T14:23:04;5.30;;;4.10;;
69892;SDS011;61212;42.688;22.176;2022-07-06T14:25:30;7.45;;;3.80;;
69892;SDS011;61212;42.688;22.176;2022-07-06T14:27:56;7.25;;;4.03;;
69892;SDS011;61212;42.688;22.176;2022-07-06T14:30:22;6.82;;;3.88;;
69892;SDS011;61212;42.688;22.176;2022-07-06T14:32:48;7.50;;;4.55;;
69892;SDS011;61212;42.688;22.176;2022-07-06T14:35:14;5.85;;;4.28;;
69892;SDS011;61212;42.688;22.176;2022-07-06T14:37:40;7.45;;;4.57;;
69892;SDS011;61212;42.688;22.176;2022-07-06T14:40:06;5.07;;;4.10;;
69892;SDS011;61212;42.688;22.176;2022-07-06T14:42:33;7.70;;;4.45;;
69892;SDS011;61212;42.688;22.176;2022-07-06T14:44:59;9.43;;;4.30;;
69892;SDS011;61212;42.688;22.176;2022-07-06T14:47:25;6.38;;;4.35;;
69892;SDS011;61212;42.688;22.176;2022-07-06T14:49:51;5.28;;;4.22;;
69892;SDS011;61212;42.688;22.176;2022-07-06T14:52:18;7.07;;;4.32;;
69892;SDS011;61212;42.688;22.176;2022-07-06T14:54:44;10.20;;;5.03;;
69892;SDS011;61212;42.688;22.176;2022-07-06T14:57:10;5.30;;;4.32;;
69892;SDS011;61212;42.688;22.176;2022-07-06T14:59:36;8.98;;;4.55;;
69892;SDS011;61212;42.688;22.176;2022-07-06T15:02:02;9.48;;;4.50;;
69892;SDS011;61212;42.688;22.176;2022-07-06T15:04:28;4.97;;;4.47;;
69892;SDS011;61212;42.688;22.176;2022-07-06T15:06:55;5.93;;;4.78;;
69892;SDS011;61212;42.688;22.176;2022-07-06T15:09:21;8.80;;;5.22;;
69892;SDS011;61212;42.688;22.176;2022-07-06T15:11:47;10.43;;;3.90;;